Time;durP1;ratioP1;P1;durP2;ratioP2;P2;SDS_P1;SDS_P2;PMS_P1;PMS_P2;Temp;Humidity;BMP_temperature;BMP_pressure;BME280_temperature;BME280_humidity;BME280_pressure;Samples;Min_cycle;Max_cycle;Signal;HPM_P1;HPM_P2
2023/11/24 00:01:24;;;;;;;4.38;1.60;;;;;;;;;;6159763;23;20062;-86
2023/11/24 00:03:50;;;;;;;3.15;1.58;;;;;;;;;;6159483;23;20350;-86
2023/11/24 00:06:16;;;;;;;1.63;0.82;;;;;;;;;;6186130;23;20017;-87
2023/11/24 00:08:42;;;;;;;4.72;1.30;;;;;;;;;;6185607;23;20001;-86
2023/11/24 00:11:09;;;;;;;4.35;1.65;;;;;;;;;;6185543;23;20013;-85
2023/11/24 00:13:35;;;;;;;3.83;1.55;;;;;;;;;;6159851;23;20483;-85
2023/11/24 00:16:01;;;;;;;5.47;1.73;;;;;;;;;;6158727;23;20060;-85
2023/11/24 00:18:27;;;;;;;2.28;1.10;;;;;;;;;;6159007;23;20005;-86
2023/11/24 00:20:53;;;;;;;3.78;1.75;;;;;;;;;;6158505;23;20356;-86
2023/11/24 00:23:19;;;;;;;3.55;0.90;;;;;;;;;;6185171;23;20009;-85
2023/11/24 00:25:45;;;;;;;2.10;1.30;;;;;;;;;;6158304;23;20051;-85
2023/11/24 00:28:13;;;;;;;1.83;0.80;;;;;;;;;;6159388;23;20028;-85
2023/11/24 00:30:39;;;;;;;5.28;2.17;;;;;;;;;;6158565;23;20017;-85
2023/11/24 00:33:05;;;;;;;4.63;1.48;;;;;;;;;;6159068;23;20013;-85
2023/11/24 00:35:31;;;;;;;5.93;2.80;;;;;;;;;;6158584;23;20017;-85
2023/11/24 00:37:57;;;;;;;1.65;0.70;;;;;;;;;;6159045;23;20023;-85
2023/11/24 00:40:23;;;;;;;5.28;2.05;;;;;;;;;;6158866;23;20033;-85
2023/11/24 00:42:49;;;;;;;5.68;1.70;;;;;;;;;;6186862;23;20080;-85
2023/11/24 00:45:16;;;;;;;4.70;1.48;;;;;;;;;;6159681;23;20036;-85
2023/11/24 00:47:42;;;;;;;3.05;1.70;;;;;;;;;;6159182;23;20009;-85
2023/11/24 00:50:09;;;;;;;7.13;1.67;;;;;;;;;;6156914;23;20009;-85
2023/11/24 00:52:35;;;;;;;5.78;1.45;;;;;;;;;;6157388;23;20016;-85
2023/11/24 00:55:02;;;;;;;5.20;1.80;;;;;;;;;;6158616;23;20012;-85
2023/11/24 00:57:28;;;;;;;6.90;1.85;;;;;;;;;;6159512;23;20112;-85
2023/11/24 00:59:55;;;;;;;3.00;1.52;;;;;;;;;;6159686;23;20013;-85
2023/11/24 01:02:22;;;;;;;4.90;2.83;;;;;;;;;;6159559;23;20009;-85
2023/11/24 01:04:48;;;;;;;3.80;2.20;;;;;;;;;;6160120;23;20014;-85
2023/11/24 01:07:14;;;;;;;9.23;1.27;;;;;;;;;;6159287;23;20020;-85
2023/11/24 01:09:41;;;;;;;2.45;1.00;;;;;;;;;;6159076;23;20013;-85
2023/11/24 01:12:07;;;;;;;3.40;0.85;;;;;;;;;;6158644;23;20063;-85
2023/11/24 01:14:33;;;;;;;2.65;1.15;;;;;;;;;;6158861;23;20305;-85
2023/11/24 01:17:00;;;;;;;7.47;1.08;;;;;;;;;;6158212;23;20054;-86
2023/11/24 01:19:26;;;;;;;1.98;1.17;;;;;;;;;;6158709;23;20318;-86
2023/11/24 01:21:52;;;;;;;2.30;1.10;;;;;;;;;;6158264;23;20096;-85
2023/11/24 01:24:18;;;;;;;5.82;2.85;;;;;;;;;;6158132;23;20037;-86
2023/11/24 01:26:44;;;;;;;5.15;1.65;;;;;;;;;;6158141;23;20008;-85
2023/11/24 01:29:11;;;;;;;4.22;1.27;;;;;;;;;;6158220;23;20013;-85
2023/11/24 01:31:37;;;;;;;3.80;1.17;;;;;;;;;;6157395;23;20024;-85
2023/11/24 01:34:03;;;;;;;3.42;2.05;;;;;;;;;;6156772;23;20013;-85
2023/11/24 01:36:30;;;;;;;3.30;1.33;;;;;;;;;;6155875;23;20104;-86
2023/11/24 01:38:56;;;;;;;1.63;1.02;;;;;;;;;;6156707;23;20029;-86
2023/11/24 01:41:22;;;;;;;3.70;0.98;;;;;;;;;;6157075;23;20040;-86
2023/11/24 01:44:01;;;;;;;3.03;0.95;;;;;;;;;;6160582;23;20157;-87
2023/11/24 01:46:28;;;;;;;6.18;3.60;;;;;;;;;;6160250;23;20421;-86
2023/11/24 01:48:54;;;;;;;5.40;1.80;;;;;;;;;;6160822;23;20005;-87
2023/11/24 01:51:21;;;;;;;1.42;0.45;;;;;;;;;;6160787;23;20009;-87
2023/11/24 01:53:47;;;;;;;4.63;1.30;;;;;;;;;;6159800;23;20005;-88
2023/11/24 01:56:13;;;;;;;4.63;2.65;;;;;;;;;;6160033;23;20017;-88
2023/11/24 01:58:39;;;;;;;4.05;1.80;;;;;;;;;;6160919;23;20009;-87
2023/11/24 02:01:07;;;;;;;3.30;1.00;;;;;;;;;;6160453;23;20211;-87
2023/11/24 02:03:34;;;;;;;4.53;1.33;;;;;;;;;;6161283;23;20009;-87
2023/11/24 02:06:01;;;;;;;19.95;2.65;;;;;;;;;;6160612;23;20116;-86
2023/11/24 02:08:27;;;;;;;4.03;1.33;;;;;;;;;;6160675;23;20113;-87
2023/11/24 02:10:53;;;;;;;2.08;1.70;;;;;;;;;;6161085;23;20047;-87
2023/11/24 02:13:28;;;;;;;7.78;2.40;;;;;;;;;;6160891;23;20092;-86
2023/11/24 02:15:54;;;;;;;4.82;1.80;;;;;;;;;;6158426;23;20013;-86
2023/11/24 02:18:20;;;;;;;1.92;0.93;;;;;;;;;;6158550;23;20037;-85
2023/11/24 02:20:47;;;;;;;33.15;3.20;;;;;;;;;;6158739;23;20033;-85
2023/11/24 02:23:12;;;;;;;8.38;1.90;;;;;;;;;;6159050;23;20005;-85
2023/11/24 02:25:38;;;;;;;8.88;2.75;;;;;;;;;;6185983;23;20039;-85
2023/11/24 02:28:05;;;;;;;6.95;2.83;;;;;;;;;;6158492;23;20023;-86
2023/11/24 02:30:31;;;;;;;5.40;2.28;;;;;;;;;;6185635;23;20005;-85
2023/11/24 02:32:57;;;;;;;6.03;2.13;;;;;;;;;;6158221;23;20024;-85
2023/11/24 02:35:25;;;;;;;2.78;1.65;;;;;;;;;;6159252;23;20060;-87
2023/11/24 02:37:51;;;;;;;5.28;2.50;;;;;;;;;;6158267;23;20080;-86
2023/11/24 02:40:18;;;;;;;2.28;1.50;;;;;;;;;;6158714;23;20520;-86
2023/11/24 02:42:44;;;;;;;8.10;1.95;;;;;;;;;;6157826;23;20005;-86
2023/11/24 02:45:11;;;;;;;3.88;1.95;;;;;;;;;;6157955;23;20017;-85
2023/11/24 02:47:37;;;;;;;6.45;2.00;;;;;;;;;;6158316;23;20016;-86
2023/11/24 02:50:04;;;;;;;3.80;2.40;;;;;;;;;;6158935;23;20004;-85
2023/11/24 02:52:30;;;;;;;5.32;1.90;;;;;;;;;;6158484;23;20480;-85
2023/11/24 02:54:56;;;;;;;4.57;1.77;;;;;;;;;;6158323;23;20016;-86
2023/11/24 02:57:23;;;;;;;3.40;1.77;;;;;;;;;;6158320;23;20057;-86
2023/11/24 02:59:49;;;;;;;15.70;2.20;;;;;;;;;;6157726;23;20009;-85
2023/11/24 03:02:16;;;;;;;2.47;1.23;;;;;;;;;;6186012;23;20008;-86
2023/11/24 03:04:42;;;;;;;3.80;1.42;;;;;;;;;;6158341;23;20616;-85
2023/11/24 03:07:09;;;;;;;7.70;1.58;;;;;;;;;;6158111;23;20091;-86
2023/11/24 03:09:38;;;;;;;3.50;2.22;;;;;;;;;;6157903;23;20096;-87
2023/11/24 03:12:08;;;;;;;4.07;1.90;;;;;;;;;;6158394;23;20020;-86
2023/11/24 03:14:36;;;;;;;5.55;1.83;;;;;;;;;;6158093;23;20021;-86
2023/11/24 03:17:02;;;;;;;4.80;1.77;;;;;;;;;;6158000;23;20012;-86
2023/11/24 03:19:28;;;;;;;2.92;1.65;;;;;;;;;;6158841;23;20100;-86
2023/11/24 03:21:54;;;;;;;6.57;2.72;;;;;;;;;;6157853;23;20005;-86
2023/11/24 03:24:21;;;;;;;3.08;1.48;;;;;;;;;;6157985;23;20484;-86
2023/11/24 03:26:47;;;;;;;1.58;0.98;;;;;;;;;;6158787;23;20012;-86
2023/11/24 03:29:13;;;;;;;3.80;1.55;;;;;;;;;;6158183;23;20013;-86
2023/11/24 03:31:42;;;;;;;2.72;1.60;;;;;;;;;;6158934;23;20013;-86
2023/11/24 03:34:08;;;;;;;3.75;1.20;;;;;;;;;;6158828;23;20096;-86
2023/11/24 03:36:34;;;;;;;6.85;2.38;;;;;;;;;;6158545;23;20337;-86
2023/11/24 03:39:00;;;;;;;2.55;0.77;;;;;;;;;;6158486;23;20048;-86
2023/11/24 03:41:26;;;;;;;13.68;1.58;;;;;;;;;;6158715;23;20010;-85
2023/11/24 03:43:52;;;;;;;4.43;1.35;;;;;;;;;;6157789;23;20012;-86
2023/11/24 03:46:18;;;;;;;4.93;2.63;;;;;;;;;;6158081;23;20015;-86
2023/11/24 03:48:44;;;;;;;3.08;1.45;;;;;;;;;;6158009;23;20013;-86
2023/11/24 03:51:10;;;;;;;5.72;1.63;;;;;;;;;;6156427;23;20019;-85
2023/11/24 03:53:37;;;;;;;5.53;2.17;;;;;;;;;;6157114;23;20048;-86
2023/11/24 03:56:06;;;;;;;3.28;1.45;;;;;;;;;;6157601;23;20092;-86
2023/11/24 03:58:32;;;;;;;4.20;1.13;;;;;;;;;;6157870;23;20013;-85
2023/11/24 04:00:58;;;;;;;2.67;1.75;;;;;;;;;;6158203;23;20305;-86
2023/11/24 04:03:24;;;;;;;5.38;1.73;;;;;;;;;;6158090;23;20013;-85
2023/11/24 04:05:50;;;;;;;5.20;2.33;;;;;;;;;;6157705;23;20013;-85
2023/11/24 04:08:16;;;;;;;1.73;1.48;;;;;;;;;;6158227;23;20424;-86
2023/11/24 04:10:42;;;;;;;7.80;2.30;;;;;;;;;;6158164;23;20001;-86
2023/11/24 04:13:08;;;;;;;2.50;1.67;;;;;;;;;;6158612;23;20017;-85
2023/11/24 04:15:34;;;;;;;2.25;0.90;;;;;;;;;;6157073;23;20100;-85
2023/11/24 04:18:00;;;;;;;3.45;1.73;;;;;;;;;;6159708;23;20056;-85
2023/11/24 04:20:26;;;;;;;4.57;1.38;;;;;;;;;;6159684;23;20095;-85
2023/11/24 04:22:52;;;;;;;2.15;1.05;;;;;;;;;;6159535;23;20009;-85
2023/11/24 04:25:18;;;;;;;3.05;1.83;;;;;;;;;;6159153;23;20385;-85
2023/11/24 04:27:44;;;;;;;3.63;1.75;;;;;;;;;;6159879;23;20487;-85
2023/11/24 04:30:11;;;;;;;4.30;1.02;;;;;;;;;;6160392;23;20009;-86
2023/11/24 04:32:39;;;;;;;5.68;1.60;;;;;;;;;;6159999;23;20055;-86
2023/11/24 04:35:07;;;;;;;3.75;1.42;;;;;;;;;;6160222;23;20052;-86
2023/11/24 04:37:33;;;;;;;4.60;1.95;;;;;;;;;;6160532;23;20021;-85
2023/11/24 04:39:59;;;;;;;2.55;1.27;;;;;;;;;;6186756;23;20011;-85
2023/11/24 04:42:26;;;;;;;4.45;1.27;;;;;;;;;;6159979;23;20009;-85
2023/11/24 04:44:53;;;;;;;2.78;1.55;;;;;;;;;;6158068;23;20009;-85
2023/11/24 04:47:20;;;;;;;4.88;1.75;;;;;;;;;;6185009;23;20404;-85
2023/11/24 04:49:46;;;;;;;5.30;1.80;;;;;;;;;;6158813;23;20024;-85
2023/11/24 04:52:13;;;;;;;11.48;2.30;;;;;;;;;;6158870;23;20056;-87
2023/11/24 04:54:39;;;;;;;7.53;1.60;;;;;;;;;;6158968;23;20029;-86
2023/11/24 04:57:08;;;;;;;5.32;1.65;;;;;;;;;;6158643;23;20020;-86
2023/11/24 04:59:39;;;;;;;6.80;2.75;;;;;;;;;;6160223;23;20048;-86
2023/11/24 05:02:06;;;;;;;8.98;1.92;;;;;;;;;;6160455;23;20020;-86
2023/11/24 05:04:34;;;;;;;6.90;1.88;;;;;;;;;;6160784;23;20047;-86
2023/11/24 05:07:00;;;;;;;5.30;2.08;;;;;;;;;;6160745;23;20020;-86
2023/11/24 05:09:28;;;;;;;3.42;1.10;;;;;;;;;;6161425;23;20017;-86
2023/11/24 05:11:54;;;;;;;3.72;1.60;;;;;;;;;;6161728;23;20040;-86
2023/11/24 05:14:20;;;;;;;2.85;1.42;;;;;;;;;;6161620;23;20016;-86
2023/11/24 05:16:47;;;;;;;5.40;2.45;;;;;;;;;;6161862;23;20016;-86
2023/11/24 05:19:13;;;;;;;4.55;2.00;;;;;;;;;;6161363;23;20004;-86
2023/11/24 05:21:39;;;;;;;5.78;1.40;;;;;;;;;;6161555;23;20043;-86
2023/11/24 05:24:06;;;;;;;3.38;1.67;;;;;;;;;;6187616;23;19994;-85
2023/11/24 05:26:32;;;;;;;6.10;1.17;;;;;;;;;;6161441;23;20013;-86
2023/11/24 05:28:59;;;;;;;2.83;2.15;;;;;;;;;;6160935;23;20012;-86
2023/11/24 05:31:25;;;;;;;7.07;2.15;;;;;;;;;;6161199;23;20095;-86
2023/11/24 05:33:51;;;;;;;7.35;2.03;;;;;;;;;;6161422;23;20099;-85
2023/11/24 05:36:22;;;;;;;3.47;0.98;;;;;;;;;;6160215;23;20329;-85
2023/11/24 05:38:48;;;;;;;4.13;2.15;;;;;;;;;;6186882;23;20428;-85
2023/11/24 05:41:14;;;;;;;3.38;1.17;;;;;;;;;;6159867;23;20674;-85
2023/11/24 05:43:41;;;;;;;5.45;2.88;;;;;;;;;;6160073;23;20005;-86
2023/11/24 05:46:07;;;;;;;7.18;3.00;;;;;;;;;;6160163;23;20016;-85
2023/11/24 05:48:36;;;;;;;6.75;3.45;;;;;;;;;;6159351;23;20012;-85
2023/11/24 05:51:02;;;;;;;7.68;2.92;;;;;;;;;;6159866;23;20032;-84
2023/11/24 05:53:28;;;;;;;6.72;2.53;;;;;;;;;;6159546;23;20587;-85
2023/11/24 05:55:54;;;;;;;4.45;1.70;;;;;;;;;;6160839;23;20047;-85
2023/11/24 05:58:21;;;;;;;6.03;2.47;;;;;;;;;;6159597;23;20088;-86
2023/11/24 06:00:48;;;;;;;4.13;2.00;;;;;;;;;;6157946;23;20040;-85
2023/11/24 06:03:14;;;;;;;11.40;3.80;;;;;;;;;;6158903;23;20120;-85
2023/11/24 06:05:40;;;;;;;4.88;2.38;;;;;;;;;;6159132;23;20059;-85
2023/11/24 06:08:06;;;;;;;4.00;1.80;;;;;;;;;;6159674;23;20095;-84
2023/11/24 06:10:32;;;;;;;8.75;3.58;;;;;;;;;;6158580;23;20009;-84
2023/11/24 06:12:58;;;;;;;4.28;2.88;;;;;;;;;;6156796;23;20084;-84
2023/11/24 06:15:26;;;;;;;4.47;2.25;;;;;;;;;;6159196;23;20009;-83
2023/11/24 06:17:52;;;;;;;5.13;2.05;;;;;;;;;;6159535;23;20539;-84
2023/11/24 06:20:18;;;;;;;7.53;3.10;;;;;;;;;;6185226;23;20082;-83
2023/11/24 06:22:44;;;;;;;11.38;2.67;;;;;;;;;;6159562;23;20001;-84
2023/11/24 06:25:10;;;;;;;5.22;2.33;;;;;;;;;;6186652;23;20317;-84
2023/11/24 06:27:37;;;;;;;4.05;2.67;;;;;;;;;;6159073;23;20017;-82
2023/11/24 06:30:05;;;;;;;11.20;2.78;;;;;;;;;;6185552;23;20040;-82
2023/11/24 06:32:31;;;;;;;8.80;3.15;;;;;;;;;;6183287;23;20009;-82
2023/11/24 06:34:58;;;;;;;5.35;2.10;;;;;;;;;;6163564;23;20009;-83
2023/11/24 06:37:24;;;;;;;11.05;2.33;;;;;;;;;;6187615;23;20010;-82
2023/11/24 06:39:50;;;;;;;5.72;2.25;;;;;;;;;;6185295;23;20063;-86
2023/11/24 06:42:16;;;;;;;5.32;2.55;;;;;;;;;;6160309;23;20036;-86
2023/11/24 06:44:43;;;;;;;15.20;1.90;;;;;;;;;;6160125;23;20060;-86
2023/11/24 06:47:09;;;;;;;6.55;2.88;;;;;;;;;;6160134;23;20013;-85
2023/11/24 06:49:35;;;;;;;7.38;3.05;;;;;;;;;;6160735;23;20105;-85
2023/11/24 06:52:01;;;;;;;8.98;2.65;;;;;;;;;;6160052;23;20537;-85
2023/11/24 06:54:30;;;;;;;12.50;3.88;;;;;;;;;;6159815;23;20013;-85
2023/11/24 06:56:57;;;;;;;6.57;2.90;;;;;;;;;;6159653;23;20005;-85
2023/11/24 06:59:23;;;;;;;7.47;2.92;;;;;;;;;;6160329;23;20425;-85
2023/11/24 07:01:49;;;;;;;5.60;2.65;;;;;;;;;;6160896;23;20009;-85
2023/11/24 07:04:18;;;;;;;3.03;2.08;;;;;;;;;;6186488;23;20001;-86
2023/11/24 07:06:44;;;;;;;9.60;2.30;;;;;;;;;;6160370;23;20013;-86
2023/11/24 07:09:10;;;;;;;9.52;3.42;;;;;;;;;;6159172;23;20330;-85
2023/11/24 07:11:36;;;;;;;7.35;3.78;;;;;;;;;;6159850;23;20482;-85
2023/11/24 07:14:02;;;;;;;4.35;2.22;;;;;;;;;;6159992;23;20051;-86
2023/11/24 07:16:28;;;;;;;2.95;1.75;;;;;;;;;;6159559;23;20099;-85
2023/11/24 07:18:54;;;;;;;11.77;3.08;;;;;;;;;;6158755;23;20682;-84
2023/11/24 07:21:21;;;;;;;4.25;2.30;;;;;;;;;;6184883;23;20005;-84
2023/11/24 07:23:47;;;;;;;9.68;3.22;;;;;;;;;;6157902;23;20012;-84
2023/11/24 07:26:17;;;;;;;11.77;3.22;;;;;;;;;;6158121;23;20009;-85
2023/11/24 07:28:45;;;;;;;10.75;2.58;;;;;;;;;;6157307;23;20013;-85
2023/11/24 07:31:17;;;;;;;3.13;1.67;;;;;;;;;;6158687;23;20076;-85
2023/11/24 07:33:46;;;;;;;12.52;4.45;;;;;;;;;;6157138;23;20013;-86
2023/11/24 07:36:13;;;;;;;14.85;2.92;;;;;;;;;;6156773;23;20045;-86
2023/11/24 07:38:39;;;;;;;9.45;2.80;;;;;;;;;;6182496;23;20009;-84
2023/11/24 07:41:08;;;;;;;9.23;3.75;;;;;;;;;;6156581;23;20337;-85
2023/11/24 07:43:34;;;;;;;6.25;3.15;;;;;;;;;;6155200;23;20489;-85
2023/11/24 07:46:00;;;;;;;4.95;1.92;;;;;;;;;;6155886;23;20040;-84
2023/11/24 07:48:26;;;;;;;4.65;2.70;;;;;;;;;;6155016;23;20024;-84
2023/11/24 07:50:52;;;;;;;7.57;2.60;;;;;;;;;;6155623;23;20377;-85
2023/11/24 07:53:18;;;;;;;9.73;3.50;;;;;;;;;;6156435;23;20068;-85
2023/11/24 07:55:44;;;;;;;9.57;3.03;;;;;;;;;;6184324;23;20388;-85
2023/11/24 07:58:11;;;;;;;7.85;2.00;;;;;;;;;;6158148;23;20036;-85
2023/11/24 08:00:39;;;;;;;10.20;5.32;;;;;;;;;;6157927;23;20010;-84
2023/11/24 08:03:05;;;;;;;5.88;2.80;;;;;;;;;;6158614;23;20013;-86
2023/11/24 08:05:31;;;;;;;6.47;3.00;;;;;;;;;;6158135;23;20440;-85
2023/11/24 08:07:58;;;;;;;6.13;2.72;;;;;;;;;;6184244;23;20005;-85
2023/11/24 08:10:24;;;;;;;5.18;2.53;;;;;;;;;;6157008;23;20036;-85
2023/11/24 08:12:50;;;;;;;5.68;1.42;;;;;;;;;;6183359;23;20436;-85
2023/11/24 08:15:16;;;;;;;6.65;2.95;;;;;;;;;;6156922;23;20028;-85
2023/11/24 08:17:43;;;;;;;20.35;2.90;;;;;;;;;;6183701;23;20016;-85
2023/11/24 08:20:13;;;;;;;7.97;3.65;;;;;;;;;;6155431;23;20774;-86
2023/11/24 08:22:39;;;;;;;16.67;5.57;;;;;;;;;;6156634;23;20780;-86
2023/11/24 08:25:09;;;;;;;6.20;1.75;;;;;;;;;;6155589;23;20012;-86
2023/11/24 08:27:35;;;;;;;5.32;2.20;;;;;;;;;;6156052;23;20020;-86
2023/11/24 08:30:05;;;;;;;2.80;1.38;;;;;;;;;;6155942;23;20012;-85
2023/11/24 08:32:31;;;;;;;6.25;2.22;;;;;;;;;;6156668;23;20016;-85
2023/11/24 08:34:57;;;;;;;6.38;2.75;;;;;;;;;;6182473;23;20429;-85
2023/11/24 08:37:23;;;;;;;8.40;2.75;;;;;;;;;;6182330;23;20016;-84
2023/11/24 08:39:49;;;;;;;12.68;3.45;;;;;;;;;;6154991;23;20048;-84
2023/11/24 08:42:15;;;;;;;6.38;2.58;;;;;;;;;;6155620;23;20072;-84
2023/11/24 08:44:41;;;;;;;2.92;1.98;;;;;;;;;;6180794;23;20001;-84
2023/11/24 08:47:07;;;;;;;8.98;3.13;;;;;;;;;;6155069;23;20096;-84
2023/11/24 08:49:33;;;;;;;23.67;4.68;;;;;;;;;;6154178;23;20068;-85
2023/11/24 08:51:59;;;;;;;14.00;7.70;;;;;;;;;;6155043;23;20013;-85
2023/11/24 08:54:25;;;;;;;6.38;4.88;;;;;;;;;;6154485;23;20017;-85
2023/11/24 08:56:51;;;;;;;10.85;4.85;;;;;;;;;;6155123;23;20013;-85
2023/11/24 08:59:18;;;;;;;16.38;4.90;;;;;;;;;;6154433;23;20009;-85
2023/11/24 09:01:49;;;;;;;11.20;5.20;;;;;;;;;;6155239;23;20009;-85
2023/11/24 09:04:15;;;;;;;9.07;3.25;;;;;;;;;;6182291;23;20092;-85
2023/11/24 09:06:41;;;;;;;11.00;4.13;;;;;;;;;;6156544;23;20044;-85
2023/11/24 09:09:07;;;;;;;5.70;3.25;;;;;;;;;;6156598;23;20086;-85
2023/11/24 09:11:34;;;;;;;4.85;2.20;;;;;;;;;;6156183;23;20016;-85
2023/11/24 09:14:00;;;;;;;8.95;3.42;;;;;;;;;;6156394;23;20016;-85
2023/11/24 09:16:26;;;;;;;14.23;5.05;;;;;;;;;;6156383;23;20028;-86
2023/11/24 09:18:53;;;;;;;12.52;3.92;;;;;;;;;;6183051;23;20001;-86
2023/11/24 09:21:20;;;;;;;7.72;3.85;;;;;;;;;;6183021;23;20013;-85
2023/11/24 09:23:46;;;;;;;15.93;4.22;;;;;;;;;;6157117;23;20040;-85
2023/11/24 09:26:12;;;;;;;10.38;5.22;;;;;;;;;;6182988;23;20009;-85
2023/11/24 09:28:38;;;;;;;10.95;3.28;;;;;;;;;;6156795;23;20012;-85
2023/11/24 09:31:08;;;;;;;5.35;3.03;;;;;;;;;;6155501;23;20013;-85
2023/11/24 09:33:38;;;;;;;5.63;2.90;;;;;;;;;;6156917;23;20060;-86
2023/11/24 09:36:04;;;;;;;8.77;2.55;;;;;;;;;;6155575;23;20017;-86
2023/11/24 09:38:30;;;;;;;7.20;1.95;;;;;;;;;;6155528;23;20021;-86
2023/11/24 09:41:01;;;;;;;9.32;3.13;;;;;;;;;;6157125;23;20093;-86
2023/11/24 09:43:27;;;;;;;7.53;3.47;;;;;;;;;;6156342;23;20009;-85
2023/11/24 09:45:55;;;;;;;7.10;3.35;;;;;;;;;;6155339;23;20020;-85
2023/11/24 09:48:21;;;;;;;10.02;4.88;;;;;;;;;;6155816;23;20009;-86
2023/11/24 09:50:48;;;;;;;10.70;2.55;;;;;;;;;;6155793;23;20013;-86
2023/11/24 09:53:16;;;;;;;7.85;3.75;;;;;;;;;;6156150;23;20009;-86
2023/11/24 09:55:42;;;;;;;8.20;3.38;;;;;;;;;;6155135;23;20009;-86
2023/11/24 09:58:08;;;;;;;11.50;3.28;;;;;;;;;;6156761;23;20048;-86
2023/11/24 10:00:34;;;;;;;12.07;2.88;;;;;;;;;;6155750;23;20032;-86
2023/11/24 10:03:02;;;;;;;8.38;3.17;;;;;;;;;;6156504;23;20020;-86
2023/11/24 10:05:29;;;;;;;5.03;2.08;;;;;;;;;;6155906;23;20037;-86
2023/11/24 10:07:55;;;;;;;8.60;3.50;;;;;;;;;;6156459;23;20364;-86
2023/11/24 10:10:22;;;;;;;8.43;3.03;;;;;;;;;;6155329;23;20016;-87
2023/11/24 10:12:50;;;;;;;10.63;3.45;;;;;;;;;;6156375;23;20024;-88
2023/11/24 10:15:16;;;;;;;10.35;3.38;;;;;;;;;;6155061;23;20433;-87
2023/11/24 10:17:45;;;;;;;6.18;2.78;;;;;;;;;;6156225;23;20096;-86
2023/11/24 10:20:11;;;;;;;6.70;2.42;;;;;;;;;;6155618;23;20084;-86
2023/11/24 10:22:41;;;;;;;13.05;3.75;;;;;;;;;;6156827;23;20095;-86
2023/11/24 10:25:14;;;;;;;4.53;2.70;;;;;;;;;;6155808;23;20096;-87
2023/11/24 10:27:41;;;;;;;7.18;2.35;;;;;;;;;;6156524;23;20085;-87
2023/11/24 10:30:07;;;;;;;7.00;2.17;;;;;;;;;;6155907;23;20013;-87
2023/11/24 10:32:33;;;;;;;5.45;2.30;;;;;;;;;;6157453;23;20112;-87
2023/11/24 10:35:00;;;;;;;6.10;3.22;;;;;;;;;;6156364;23;20036;-88
2023/11/24 10:37:28;;;;;;;6.20;2.22;;;;;;;;;;6156364;23;20025;-87
2023/11/24 10:39:56;;;;;;;4.20;2.15;;;;;;;;;;6156040;23;20709;-87
2023/11/24 10:42:24;;;;;;;3.33;1.38;;;;;;;;;;6156585;23;20016;-87
2023/11/24 10:44:54;;;;;;;9.02;3.25;;;;;;;;;;6155475;23;20425;-87
2023/11/24 10:47:29;;;;;;;4.05;1.52;;;;;;;;;;6156056;23;20441;-87
2023/11/24 10:50:01;;;;;;;2.85;1.63;;;;;;;;;;6155174;23;20012;-87
2023/11/24 10:52:31;;;;;;;4.63;2.03;;;;;;;;;;6156987;23;20028;-87
2023/11/24 10:55:01;;;;;;;6.50;1.83;;;;;;;;;;6156316;23;20005;-87
2023/11/24 10:57:28;;;;;;;6.20;1.85;;;;;;;;;;6157592;23;20041;-87
2023/11/24 10:59:57;;;;;;;3.08;1.10;;;;;;;;;;6156604;23;20096;-87
2023/11/24 11:02:25;;;;;;;4.03;1.25;;;;;;;;;;6157183;23;20013;-87
2023/11/24 11:04:59;;;;;;;3.47;1.52;;;;;;;;;;6157282;23;20440;-87
2023/11/24 11:07:52;;;;;;;3.42;1.63;;;;;;;;;;6157751;23;20024;-87
2023/11/24 11:10:31;;;;;;;4.40;1.20;;;;;;;;;;6158193;23;20008;-87
2023/11/24 11:12:57;;;;;;;2.33;1.20;;;;;;;;;;6156381;23;20100;-87
2023/11/24 11:15:25;;;;;;;2.17;0.90;;;;;;;;;;6158685;23;20009;-87
2023/11/24 11:18:10;;;;;;;1.83;0.80;;;;;;;;;;6155382;23;20031;-88
2023/11/24 11:20:44;;;;;;;1.75;0.70;;;;;;;;;;6157453;23;20051;-87
2023/11/24 11:23:14;;;;;;;4.65;1.52;;;;;;;;;;6156318;23;20091;-88
2023/11/24 11:25:42;;;;;;;1.60;0.60;;;;;;;;;;6156697;23;20044;-87
2023/11/24 11:28:23;;;;;;;2.25;0.60;;;;;;;;;;6157549;23;20025;-87
2023/11/24 11:30:50;;;;;;;3.70;1.15;;;;;;;;;;6157580;23;20013;-88
2023/11/24 11:33:19;;;;;;;0.75;0.60;;;;;;;;;;6156849;23;20028;-87
2023/11/24 11:35:45;;;;;;;3.47;0.95;;;;;;;;;;6157009;23;20009;-88
2023/11/24 11:38:13;;;;;;;0.77;0.50;;;;;;;;;;6155974;23;20029;-88
2023/11/24 11:40:43;;;;;;;1.00;0.77;;;;;;;;;;6157393;23;20016;-87
2023/11/24 11:43:10;;;;;;;0.68;0.40;;;;;;;;;;6156035;23;20563;-87
2023/11/24 11:45:49;;;;;;;5.25;0.90;;;;;;;;;;6157055;23;20047;-87
2023/11/24 11:48:15;;;;;;;1.58;0.50;;;;;;;;;;6156787;23;20016;-87
2023/11/24 11:50:50;;;;;;;2.35;1.20;;;;;;;;;;6157671;23;20088;-88
2023/11/24 11:53:17;;;;;;;1.48;0.63;;;;;;;;;;6157390;23;20017;-87
2023/11/24 11:55:44;;;;;;;10.30;1.00;;;;;;;;;;6157983;23;20524;-87
2023/11/24 11:58:12;;;;;;;2.38;0.95;;;;;;;;;;6157549;23;20024;-88
2023/11/24 12:00:39;;;;;;;3.20;0.63;;;;;;;;;;6158017;23;20421;-87
2023/11/24 12:03:06;;;;;;;1.05;0.73;;;;;;;;;;6159038;23;20425;-88
2023/11/24 12:05:33;;;;;;;0.70;0.52;;;;;;;;;;6157536;23;20005;-88
2023/11/24 12:08:00;;;;;;;1.40;0.77;;;;;;;;;;6158018;23;20009;-87
2023/11/24 12:10:29;;;;;;;1.45;0.75;;;;;;;;;;6158073;23;20449;-87
2023/11/24 12:12:55;;;;;;;3.10;0.65;;;;;;;;;;6157379;23;20017;-87
2023/11/24 12:15:23;;;;;;;7.00;1.50;;;;;;;;;;6156815;23;20005;-87
2023/11/24 12:17:53;;;;;;;1.65;0.85;;;;;;;;;;6155845;23;20036;-87
2023/11/24 12:20:19;;;;;;;2.55;1.02;;;;;;;;;;6157664;23;20016;-86
2023/11/24 12:22:46;;;;;;;1.85;0.77;;;;;;;;;;6157206;23;20013;-87
2023/11/24 12:25:15;;;;;;;0.75;0.47;;;;;;;;;;6156711;23;20009;-87
2023/11/24 12:27:44;;;;;;;2.00;1.13;;;;;;;;;;6157146;23;20017;-87
2023/11/24 12:30:11;;;;;;;4.00;1.48;;;;;;;;;;6156916;23;20087;-87
2023/11/24 12:32:37;;;;;;;5.93;1.25;;;;;;;;;;6157819;23;20028;-88
2023/11/24 12:35:08;;;;;;;1.88;1.05;;;;;;;;;;6157361;23;20013;-87
2023/11/24 12:37:34;;;;;;;2.30;0.80;;;;;;;;;;6157726;23;20072;-87
2023/11/24 12:40:00;;;;;;;3.33;1.58;;;;;;;;;;6159697;23;20047;-87
2023/11/24 12:42:33;;;;;;;3.15;1.85;;;;;;;;;;6159239;23;20017;-87
2023/11/24 12:44:59;;;;;;;1.45;1.02;;;;;;;;;;6158324;23;20009;-86
2023/11/24 12:47:25;;;;;;;2.00;0.60;;;;;;;;;;6158375;23;20024;-87
2023/11/24 12:49:59;;;;;;;1.95;0.98;;;;;;;;;;6157780;23;20132;-88
2023/11/24 12:52:29;;;;;;;3.13;0.73;;;;;;;;;;6158303;23;20027;-87
2023/11/24 12:54:57;;;;;;;3.08;1.40;;;;;;;;;;6156615;23;20008;-87
2023/11/24 12:57:24;;;;;;;3.35;1.48;;;;;;;;;;6157848;23;20012;-86
2023/11/24 12:59:51;;;;;;;3.60;1.10;;;;;;;;;;6157872;23;20016;-86
2023/11/24 13:02:20;;;;;;;1.55;0.63;;;;;;;;;;6157887;23;20013;-87
2023/11/24 13:04:48;;;;;;;2.65;1.00;;;;;;;;;;6156705;23;20001;-86
2023/11/24 13:07:14;;;;;;;0.90;0.43;;;;;;;;;;6157677;23;20083;-86
2023/11/24 13:09:40;;;;;;;4.57;1.15;;;;;;;;;;6157308;23;20745;-86
2023/11/24 13:12:08;;;;;;;1.42;0.75;;;;;;;;;;6157801;23;20104;-86
2023/11/24 13:14:34;;;;;;;2.25;1.20;;;;;;;;;;6156991;23;20445;-86
2023/11/24 13:17:03;;;;;;;2.08;1.00;;;;;;;;;;6157310;23;20017;-86
2023/11/24 13:19:29;;;;;;;2.47;1.05;;;;;;;;;;6157017;23;20009;-86
2023/11/24 13:21:58;;;;;;;29.27;1.83;;;;;;;;;;6157600;23;20024;-86
2023/11/24 13:24:24;;;;;;;0.93;0.77;;;;;;;;;;6158497;23;20008;-86
2023/11/24 13:26:53;;;;;;;4.95;1.30;;;;;;;;;;6157972;23;20021;-86
2023/11/24 13:29:19;;;;;;;16.55;1.17;;;;;;;;;;6158668;23;20120;-86
2023/11/24 13:31:45;;;;;;;2.35;1.15;;;;;;;;;;6158162;23;20013;-86
2023/11/24 13:34:14;;;;;;;4.53;1.33;;;;;;;;;;6158816;23;20012;-86
2023/11/24 13:36:41;;;;;;;2.22;0.80;;;;;;;;;;6157219;23;20021;-86
2023/11/24 13:39:13;;;;;;;1.80;0.95;;;;;;;;;;6157887;23;20033;-86
2023/11/24 13:41:40;;;;;;;2.58;1.02;;;;;;;;;;6184003;23;20043;-86
2023/11/24 13:44:08;;;;;;;0.90;0.70;;;;;;;;;;6157989;23;20016;-86
2023/11/24 13:46:35;;;;;;;1.00;0.57;;;;;;;;;;6157004;23;20044;-86
2023/11/24 13:49:02;;;;;;;3.83;1.08;;;;;;;;;;6157273;23;20020;-86
2023/11/24 13:51:29;;;;;;;2.17;1.15;;;;;;;;;;6157236;23;20013;-86
2023/11/24 13:53:55;;;;;;;3.20;1.00;;;;;;;;;;6157383;23;20012;-86
2023/11/24 13:56:21;;;;;;;2.00;0.73;;;;;;;;;;6156318;23;20010;-86
2023/11/24 13:58:49;;;;;;;6.38;1.60;;;;;;;;;;6157812;23;20005;-86
2023/11/24 14:01:16;;;;;;;1.40;0.85;;;;;;;;;;6156827;23;20417;-86
2023/11/24 14:03:42;;;;;;;3.60;1.17;;;;;;;;;;6183514;23;20004;-86
2023/11/24 14:06:08;;;;;;;1.10;0.65;;;;;;;;;;6156443;23;20017;-86
2023/11/24 14:08:38;;;;;;;2.47;0.68;;;;;;;;;;6156733;23;20344;-86
2023/11/24 14:11:05;;;;;;;1.77;0.77;;;;;;;;;;6157957;23;20704;-86
2023/11/24 14:13:31;;;;;;;2.13;1.30;;;;;;;;;;6157191;23;20016;-86
2023/11/24 14:15:59;;;;;;;3.05;1.13;;;;;;;;;;6157410;23;20013;-87
2023/11/24 14:18:25;;;;;;;3.50;0.82;;;;;;;;;;6156790;23;20823;-86
2023/11/24 14:20:51;;;;;;;1.05;0.73;;;;;;;;;;6156951;23;20005;-86
2023/11/24 14:23:17;;;;;;;2.10;1.00;;;;;;;;;;6156493;23;20463;-86
2023/11/24 14:25:43;;;;;;;2.10;1.48;;;;;;;;;;6157932;23;20084;-86
2023/11/24 14:28:09;;;;;;;1.23;0.52;;;;;;;;;;6157798;23;20092;-86
2023/11/24 14:30:38;;;;;;;1.65;0.50;;;;;;;;;;6184672;23;20008;-86
2023/11/24 14:33:04;;;;;;;3.97;1.98;;;;;;;;;;6157236;23;20016;-86
2023/11/24 14:35:31;;;;;;;3.53;1.30;;;;;;;;;;6183694;23;20012;-87
2023/11/24 14:37:58;;;;;;;3.13;1.65;;;;;;;;;;6155233;23;20020;-86
2023/11/24 14:40:24;;;;;;;1.20;0.82;;;;;;;;;;6156276;23;20009;-86